sensor_id;sensor_type;location;lat;lon;timestamp;pressure;altitude;pressure_sealevel;temperature;humidity
54144;BME280;40050;47.324;18.792;2023-03-23T00:01:33;1002.55;;;7.81;57.71
54144;BME280;40050;47.324;18.792;2023-03-23T00:03:33;1002.57;;;7.80;57.73
54144;BME280;40050;47.324;18.792;2023-03-23T00:05:34;1002.56;;;7.74;57.70
54144;BME280;40050;47.324;18.792;2023-03-23T00:07:35;1002.55;;;7.73;57.66
54144;BME280;40050;47.324;18.792;2023-03-23T00:09:36;1002.61;;;7.74;58.23
54144;BME280;40050;47.324;18.792;2023-03-23T00:11:37;1002.53;;;7.70;58.37
54144;BME280;40050;47.324;18.792;2023-03-23T00:13:38;1002.55;;;7.68;58.33
54144;BME280;40050;47.324;18.792;2023-03-23T00:15:39;1002.56;;;7.65;58.11
54144;BME280;40050;47.324;18.792;2023-03-23T00:17:40;1002.51;;;7.64;58.38
54144;BME280;40050;47.324;18.792;2023-03-23T00:19:41;1002.43;;;7.60;58.12
54144;BME280;40050;47.324;18.792;2023-03-23T00:21:42;1002.46;;;7.58;58.17
54144;BME280;40050;47.324;18.792;2023-03-23T00:23:43;1002.48;;;7.59;58.48
54144;BME280;40050;47.324;18.792;2023-03-23T00:25:49;1002.46;;;7.59;58.35
54144;BME280;40050;47.324;18.792;2023-03-23T00:27:50;1002.43;;;7.55;58.50
54144;BME280;40050;47.324;18.792;2023-03-23T00:29:51;1002.44;;;7.50;58.48
54144;BME280;40050;47.324;18.792;2023-03-23T00:31:52;1002.49;;;7.51;58.45
54144;BME280;40050;47.324;18.792;2023-03-23T00:33:53;1002.44;;;7.49;58.35
54144;BME280;40050;47.324;18.792;2023-03-23T00:35:54;1002.41;;;7.49;58.44
54144;BME280;40050;47.324;18.792;2023-03-23T00:37:55;1002.33;;;7.49;58.42
54144;BME280;40050;47.324;18.792;2023-03-23T00:39:56;1002.38;;;7.50;58.65
54144;BME280;40050;47.324;18.792;2023-03-23T00:41:57;1002.37;;;7.48;58.51
54144;BME280;40050;47.324;18.792;2023-03-23T00:43:58;1002.31;;;7.44;58.55
54144;BME280;40050;47.324;18.792;2023-03-23T00:45:59;1002.33;;;7.42;58.48
54144;BME280;40050;47.324;18.792;2023-03-23T00:48:00;1002.31;;;7.42;58.45
54144;BME280;40050;47.324;18.792;2023-03-23T00:50:02;1002.31;;;7.40;58.64
54144;BME280;40050;47.324;18.792;2023-03-23T00:52:03;1002.29;;;7.39;58.62
54144;BME280;40050;47.324;18.792;2023-03-23T00:54:05;1002.30;;;7.40;59.01
54144;BME280;40050;47.324;18.792;2023-03-23T00:56:06;1002.26;;;7.39;58.98
54144;BME280;40050;47.324;18.792;2023-03-23T00:58:08;1002.22;;;7.35;58.80
54144;BME280;40050;47.324;18.792;2023-03-23T01:00:09;1002.25;;;7.35;58.49
54144;BME280;40050;47.324;18.792;2023-03-23T01:02:11;1002.22;;;7.30;58.21
54144;BME280;40050;47.324;18.792;2023-03-23T01:04:12;1002.20;;;7.26;58.13
54144;BME280;40050;47.324;18.792;2023-03-23T01:06:13;1002.19;;;7.20;58.10
54144;BME280;40050;47.324;18.792;2023-03-23T01:08:14;1002.18;;;7.16;58.11
54144;BME280;40050;47.324;18.792;2023-03-23T01:10:15;1002.17;;;7.16;58.76
54144;BME280;40050;47.324;18.792;2023-03-23T01:12:16;1002.16;;;7.13;58.82
54144;BME280;40050;47.324;18.792;2023-03-23T01:14:18;1002.11;;;7.08;58.71
54144;BME280;40050;47.324;18.792;2023-03-23T01:16:19;1002.14;;;7.06;58.75
54144;BME280;40050;47.324;18.792;2023-03-23T01:18:20;1002.16;;;7.05;58.71
54144;BME280;40050;47.324;18.792;2023-03-23T01:20:21;1002.15;;;7.03;58.89
54144;BME280;40050;47.324;18.792;2023-03-23T01:22:22;1001.98;;;7.03;59.13
54144;BME280;40050;47.324;18.792;2023-03-23T01:24:23;1002.13;;;7.01;59.22
54144;BME280;40050;47.324;18.792;2023-03-23T01:26:24;1002.14;;;7.01;59.45
54144;BME280;40050;47.324;18.792;2023-03-23T01:28:25;1002.12;;;6.98;59.46
54144;BME280;40050;47.324;18.792;2023-03-23T01:30:26;1002.09;;;6.97;59.48
54144;BME280;40050;47.324;18.792;2023-03-23T01:32:28;1002.10;;;6.97;59.46
54144;BME280;40050;47.324;18.792;2023-03-23T01:34:29;1002.07;;;6.96;59.62
54144;BME280;40050;47.324;18.792;2023-03-23T01:36:30;1002.10;;;6.94;59.59
54144;BME280;40050;47.324;18.792;2023-03-23T01:38:32;1002.05;;;6.94;59.69
54144;BME280;40050;47.324;18.792;2023-03-23T01:40:33;1001.69;;;6.69;59.62
54144;BME280;40050;47.324;18.792;2023-03-23T01:42:34;1002.10;;;6.92;59.50
54144;BME280;40050;47.324;18.792;2023-03-23T01:46:48;1002.08;;;6.81;59.86
54144;BME280;40050;47.324;18.792;2023-03-23T01:48:49;1002.04;;;6.78;59.86
54144;BME280;40050;47.324;18.792;2023-03-23T01:53:16;1001.98;;;6.68;60.01
54144;BME280;40050;47.324;18.792;2023-03-23T01:55:17;1002.02;;;6.67;60.04
54144;BME280;40050;47.324;18.792;2023-03-23T01:57:19;1001.71;;;6.48;60.03
54144;BME280;40050;47.324;18.792;2023-03-23T01:59:22;1002.04;;;6.72;60.04
54144;BME280;40050;47.324;18.792;2023-03-23T02:01:24;1002.05;;;6.73;59.76
54144;BME280;40050;47.324;18.792;2023-03-23T02:03:25;1002.01;;;6.73;59.52
54144;BME280;40050;47.324;18.792;2023-03-23T02:05:32;1002.06;;;6.72;59.67
54144;BME280;40050;47.324;18.792;2023-03-23T02:07:34;1002.03;;;6.69;59.79
54144;BME280;40050;47.324;18.792;2023-03-23T02:09:35;1001.84;;;6.59;59.74
54144;BME280;40050;47.324;18.792;2023-03-23T02:11:36;1001.75;;;6.55;59.68
54144;BME280;40050;47.324;18.792;2023-03-23T02:13:37;1001.98;;;6.70;59.85
54144;BME280;40050;47.324;18.792;2023-03-23T02:15:48;1001.96;;;6.72;59.90
54144;BME280;40050;47.324;18.792;2023-03-23T02:24:59;1002.02;;;6.55;59.16
54144;BME280;40050;47.324;18.792;2023-03-23T02:27:13;1002.06;;;6.60;59.45
54144;BME280;40050;47.324;18.792;2023-03-23T02:34:00;1002.10;;;6.47;59.64
54144;BME280;40050;47.324;18.792;2023-03-23T02:36:05;1002.08;;;6.50;59.73
54144;BME280;40050;47.324;18.792;2023-03-23T02:38:13;1002.10;;;6.51;60.21
54144;BME280;40050;47.324;18.792;2023-03-23T02:40:27;1002.09;;;6.50;60.12
54144;BME280;40050;47.324;18.792;2023-03-23T02:42:31;1002.12;;;6.49;60.29
54144;BME280;40050;47.324;18.792;2023-03-23T02:44:33;1002.13;;;6.45;60.29
54144;BME280;40050;47.324;18.792;2023-03-23T02:46:35;1002.08;;;6.43;60.48
54144;BME280;40050;47.324;18.792;2023-03-23T02:48:36;1002.08;;;6.41;60.37
54144;BME280;40050;47.324;18.792;2023-03-23T02:50:39;1002.13;;;6.43;60.61
54144;BME280;40050;47.324;18.792;2023-03-23T02:52:41;1002.11;;;6.41;60.51
54144;BME280;40050;47.324;18.792;2023-03-23T02:54:44;1001.94;;;6.30;60.55
54144;BME280;40050;47.324;18.792;2023-03-23T02:56:46;1002.15;;;6.42;60.43
54144;BME280;40050;47.324;18.792;2023-03-23T02:58:48;1002.07;;;6.33;60.49
54144;BME280;40050;47.324;18.792;2023-03-23T03:00:49;1002.04;;;6.31;60.61
54144;BME280;40050;47.324;18.792;2023-03-23T03:02:51;1002.17;;;6.36;60.79
54144;BME280;40050;47.324;18.792;2023-03-23T03:04:57;1002.18;;;6.38;60.76
54144;BME280;40050;47.324;18.792;2023-03-23T03:09:30;1002.16;;;6.32;60.72
54144;BME280;40050;47.324;18.792;2023-03-23T03:11:37;1002.16;;;6.29;60.86
54144;BME280;40050;47.324;18.792;2023-03-23T03:13:52;1002.11;;;6.34;61.21
54144;BME280;40050;47.324;18.792;2023-03-23T03:15:55;1002.13;;;6.34;60.91
54144;BME280;40050;47.324;18.792;2023-03-23T03:29:58;1002.21;;;6.63;60.05
54144;BME280;40050;47.324;18.792;2023-03-23T03:32:01;1002.18;;;6.53;60.14
54144;BME280;40050;47.324;18.792;2023-03-23T03:34:02;1002.18;;;6.46;60.09
54144;BME280;40050;47.324;18.792;2023-03-23T03:36:04;1002.11;;;6.35;60.18
54144;BME280;40050;47.324;18.792;2023-03-23T03:38:09;1002.22;;;6.38;60.46
54144;BME280;40050;47.324;18.792;2023-03-23T03:40:12;1002.15;;;6.27;60.78
54144;BME280;40050;47.324;18.792;2023-03-23T03:42:13;1002.21;;;6.29;60.78
54144;BME280;40050;47.324;18.792;2023-03-23T03:46:48;1002.26;;;6.36;61.15
54144;BME280;40050;47.324;18.792;2023-03-23T03:48:49;1002.29;;;6.33;60.96
54144;BME280;40050;47.324;18.792;2023-03-23T03:50:50;1002.36;;;6.34;60.75
54144;BME280;40050;47.324;18.792;2023-03-23T03:52:51;1002.35;;;6.29;60.88
54144;BME280;40050;47.324;18.792;2023-03-23T03:54:51;1002.34;;;6.27;61.09
54144;BME280;40050;47.324;18.792;2023-03-23T03:56:52;1002.32;;;6.27;61.11
54144;BME280;40050;47.324;18.792;2023-03-23T03:58:53;1002.40;;;6.31;61.35
54144;BME280;40050;47.324;18.792;2023-03-23T04:00:54;1002.35;;;6.30;61.35
54144;BME280;40050;47.324;18.792;2023-03-23T04:02:55;1002.42;;;6.34;61.65
54144;BME280;40050;47.324;18.792;2023-03-23T04:04:56;1002.39;;;6.32;61.44
54144;BME280;40050;47.324;18.792;2023-03-23T04:06:57;1002.40;;;6.33;61.44
54144;BME280;40050;47.324;18.792;2023-03-23T04:08:58;1002.40;;;6.30;61.43
54144;BME280;40050;47.324;18.792;2023-03-23T04:10:59;1002.47;;;6.29;61.28
54144;BME280;40050;47.324;18.792;2023-03-23T04:13:00;1002.46;;;6.27;61.21
54144;BME280;40050;47.324;18.792;2023-03-23T04:15:01;1002.43;;;6.23;61.38
54144;BME280;40050;47.324;18.792;2023-03-23T04:17:02;1002.49;;;6.21;61.40
54144;BME280;40050;47.324;18.792;2023-03-23T04:19:03;1002.48;;;6.20;61.45
54144;BME280;40050;47.324;18.792;2023-03-23T04:21:04;1002.43;;;6.19;61.38
54144;BME280;40050;47.324;18.792;2023-03-23T04:23:05;1002.49;;;6.19;61.36
54144;BME280;40050;47.324;18.792;2023-03-23T04:25:07;1002.41;;;6.14;61.54
54144;BME280;40050;47.324;18.792;2023-03-23T04:27:08;1002.31;;;6.05;61.26
54144;BME280;40050;47.324;18.792;2023-03-23T04:29:08;1002.49;;;6.16;61.25
54144;BME280;40050;47.324;18.792;2023-03-23T04:31:09;1002.58;;;6.13;60.90
54144;BME280;40050;47.324;18.792;2023-03-23T04:33:11;1002.58;;;6.11;60.94
54144;BME280;40050;47.324;18.792;2023-03-23T04:35:13;1002.59;;;6.09;61.22
54144;BME280;40050;47.324;18.792;2023-03-23T04:37:14;1002.55;;;6.10;61.35
54144;BME280;40050;47.324;18.792;2023-03-23T04:39:15;1002.54;;;6.11;61.55
54144;BME280;40050;47.324;18.792;2023-03-23T04:41:15;1002.46;;;6.09;61.71
54144;BME280;40050;47.324;18.792;2023-03-23T04:43:17;1002.43;;;6.07;61.70
54144;BME280;40050;47.324;18.792;2023-03-23T04:45:19;1002.45;;;6.06;61.75
54144;BME280;40050;47.324;18.792;2023-03-23T04:47:21;1002.50;;;6.05;61.89
54144;BME280;40050;47.324;18.792;2023-03-23T04:49:22;1002.53;;;6.02;61.79
54144;BME280;40050;47.324;18.792;2023-03-23T04:51:22;1002.46;;;5.99;61.58
54144;BME280;40050;47.324;18.792;2023-03-23T04:53:23;1002.52;;;6.01;61.58
54144;BME280;40050;47.324;18.792;2023-03-23T04:55:25;1002.48;;;6.01;61.92
54144;BME280;40050;47.324;18.792;2023-03-23T04:57:26;1002.50;;;6.00;61.97
54144;BME280;40050;47.324;18.792;2023-03-23T04:59:27;1002.51;;;6.01;62.20
54144;BME280;40050;47.324;18.792;2023-03-23T05:01:28;1002.47;;;6.01;62.46
54144;BME280;40050;47.324;18.792;2023-03-23T05:03:29;1002.46;;;6.01;62.69
54144;BME280;40050;47.324;18.792;2023-03-23T05:05:30;1002.54;;;6.01;62.61
54144;BME280;40050;47.324;18.792;2023-03-23T05:07:31;1002.53;;;6.02;62.20
54144;BME280;40050;47.324;18.792;2023-03-23T05:09:32;1002.59;;;5.99;61.70
54144;BME280;40050;47.324;18.792;2023-03-23T05:11:33;1002.54;;;5.91;61.56
54144;BME280;40050;47.324;18.792;2023-03-23T05:13:34;1002.59;;;5.91;61.82
54144;BME280;40050;47.324;18.792;2023-03-23T05:15:35;1002.54;;;5.88;62.32
54144;BME280;40050;47.324;18.792;2023-03-23T05:17:36;1002.63;;;5.91;62.78
54144;BME280;40050;47.324;18.792;2023-03-23T05:19:37;1002.63;;;5.94;63.27
54144;BME280;40050;47.324;18.792;2023-03-23T05:21:38;1002.61;;;5.93;63.52
54144;BME280;40050;47.324;18.792;2023-03-23T05:23:40;1002.65;;;5.95;63.73
54144;BME280;40050;47.324;18.792;2023-03-23T05:25:41;1002.67;;;5.96;63.93
54144;BME280;40050;47.324;18.792;2023-03-23T05:27:42;1002.48;;;5.87;63.74
54144;BME280;40050;47.324;18.792;2023-03-23T05:29:43;1002.66;;;6.03;64.10
54144;BME280;40050;47.324;18.792;2023-03-23T05:31:44;1002.66;;;6.06;64.33
54144;BME280;40050;47.324;18.792;2023-03-23T05:33:45;1002.69;;;6.09;64.28
54144;BME280;40050;47.324;18.792;2023-03-23T05:35:46;1002.63;;;6.11;64.37
54144;BME280;40050;47.324;18.792;2023-03-23T05:37:47;1002.67;;;6.17;64.25
54144;BME280;40050;47.324;18.792;2023-03-23T05:39:48;1002.33;;;6.00;64.05
54144;BME280;40050;47.324;18.792;2023-03-23T05:41:49;1002.68;;;6.24;64.26
54144;BME280;40050;47.324;18.792;2023-03-23T05:43:50;1002.60;;;6.28;64.42
54144;BME280;40050;47.324;18.792;2023-03-23T05:45:51;1002.70;;;6.40;64.40
54144;BME280;40050;47.324;18.792;2023-03-23T05:47:52;1001.99;;;6.07;64.53
54144;BME280;40050;47.324;18.792;2023-03-23T05:49:53;1002.66;;;6.60;65.03
54144;BME280;40050;47.324;18.792;2023-03-23T05:51:54;1002.66;;;6.78;65.32
54144;BME280;40050;47.324;18.792;2023-03-23T05:53:55;1002.63;;;6.91;66.63
54144;BME280;40050;47.324;18.792;2023-03-23T05:56:02;1002.56;;;7.01;67.11
54144;BME280;40050;47.324;18.792;2023-03-23T05:58:03;1002.52;;;7.12;67.25
54144;BME280;40050;47.324;18.792;2023-03-23T06:00:04;1002.49;;;7.22;66.77
54144;BME280;40050;47.324;18.792;2023-03-23T06:02:05;1002.54;;;7.36;66.34
54144;BME280;40050;47.324;18.792;2023-03-23T06:04:06;1002.54;;;7.47;66.12
54144;BME280;40050;47.324;18.792;2023-03-23T06:06:09;1002.50;;;7.58;66.07
54144;BME280;40050;47.324;18.792;2023-03-23T06:08:10;1002.45;;;7.69;66.26
54144;BME280;40050;47.324;18.792;2023-03-23T06:10:11;1002.47;;;7.82;67.03
54144;BME280;40050;47.324;18.792;2023-03-23T06:12:12;1002.51;;;7.96;67.26
54144;BME280;40050;47.324;18.792;2023-03-23T06:14:13;1002.52;;;8.11;67.10
54144;BME280;40050;47.324;18.792;2023-03-23T06:16:14;1002.45;;;8.24;67.56
54144;BME280;40050;47.324;18.792;2023-03-23T06:18:15;1002.50;;;8.42;67.75
54144;BME280;40050;47.324;18.792;2023-03-23T06:20:16;1002.51;;;8.59;67.83
54144;BME280;40050;47.324;18.792;2023-03-23T06:22:17;1002.48;;;8.75;67.74
54144;BME280;40050;47.324;18.792;2023-03-23T06:24:20;1002.52;;;8.94;67.27
54144;BME280;40050;47.324;18.792;2023-03-23T06:26:22;1002.29;;;8.97;66.83
54144;BME280;40050;47.324;18.792;2023-03-23T06:28:24;1002.18;;;9.09;66.40
54144;BME280;40050;47.324;18.792;2023-03-23T06:30:25;1002.47;;;9.39;66.11
54144;BME280;40050;47.324;18.792;2023-03-23T06:32:26;1002.46;;;9.60;65.95
54144;BME280;40050;47.324;18.792;2023-03-23T06:34:29;1002.45;;;9.75;65.36
54144;BME280;40050;47.324;18.792;2023-03-23T06:36:30;1002.43;;;9.85;65.20
54144;BME280;40050;47.324;18.792;2023-03-23T06:38:31;1002.48;;;9.93;64.72
54144;BME280;40050;47.324;18.792;2023-03-23T06:40:33;1002.50;;;10.02;65.22
54144;BME280;40050;47.324;18.792;2023-03-23T06:42:33;1002.55;;;10.17;64.62
54144;BME280;40050;47.324;18.792;2023-03-23T06:44:34;1002.59;;;10.29;64.27
54144;BME280;40050;47.324;18.792;2023-03-23T06:46:35;1002.59;;;10.42;63.95
54144;BME280;40050;47.324;18.792;2023-03-23T06:48:36;1002.55;;;10.54;63.64
54144;BME280;40050;47.324;18.792;2023-03-23T06:50:37;1002.62;;;10.77;63.31
54144;BME280;40050;47.324;18.792;2023-03-23T06:52:38;1002.65;;;10.90;62.88
54144;BME280;40050;47.324;18.792;2023-03-23T06:54:39;1002.64;;;11.06;62.34
54144;BME280;40050;47.324;18.792;2023-03-23T06:56:40;1002.56;;;11.22;61.76
54144;BME280;40050;47.324;18.792;2023-03-23T06:58:41;1002.61;;;11.40;61.18
54144;BME280;40050;47.324;18.792;2023-03-23T07:00:42;1002.61;;;11.57;60.46
54144;BME280;40050;47.324;18.792;2023-03-23T07:02:43;1002.58;;;11.77;60.04
54144;BME280;40050;47.324;18.792;2023-03-23T07:04:44;1002.59;;;11.88;58.95
54144;BME280;40050;47.324;18.792;2023-03-23T07:06:46;1002.62;;;12.03;58.77
54144;BME280;40050;47.324;18.792;2023-03-23T07:08:47;1002.63;;;12.18;58.22
54144;BME280;40050;47.324;18.792;2023-03-23T07:10:50;1002.60;;;12.22;57.43
54144;BME280;40050;47.324;18.792;2023-03-23T07:12:51;1002.60;;;12.31;57.27
54144;BME280;40050;47.324;18.792;2023-03-23T07:14:52;1002.68;;;12.52;57.27
54144;BME280;40050;47.324;18.792;2023-03-23T07:16:53;1002.64;;;12.68;57.31
54144;BME280;40050;47.324;18.792;2023-03-23T07:18:54;1002.65;;;12.89;56.87
54144;BME280;40050;47.324;18.792;2023-03-23T07:20:55;1002.64;;;12.99;55.87
54144;BME280;40050;47.324;18.792;2023-03-23T07:22:56;1002.64;;;13.11;55.89
54144;BME280;40050;47.324;18.792;2023-03-23T07:24:57;1002.70;;;13.20;55.08
54144;BME280;40050;47.324;18.792;2023-03-23T07:26:58;1002.69;;;13.32;55.83
54144;BME280;40050;47.324;18.792;2023-03-23T07:28:59;1002.56;;;13.41;55.00
54144;BME280;40050;47.324;18.792;2023-03-23T07:31:00;1002.66;;;13.57;53.55
54144;BME280;40050;47.324;18.792;2023-03-23T07:33:03;1002.78;;;13.72;53.68
54144;BME280;40050;47.324;18.792;2023-03-23T07:35:05;1002.81;;;13.90;53.33
54144;BME280;40050;47.324;18.792;2023-03-23T07:37:06;1002.79;;;13.99;53.01
54144;BME280;40050;47.324;18.792;2023-03-23T07:39:07;1002.80;;;14.10;52.21
54144;BME280;40050;47.324;18.792;2023-03-23T07:41:08;1002.77;;;14.24;52.42
54144;BME280;40050;47.324;18.792;2023-03-23T07:43:09;1002.78;;;14.42;52.24
54144;BME280;40050;47.324;18.792;2023-03-23T07:45:13;1002.74;;;14.56;52.38
54144;BME280;40050;47.324;18.792;2023-03-23T07:47:14;1002.82;;;14.79;52.00
54144;BME280;40050;47.324;18.792;2023-03-23T07:49:14;1002.83;;;14.98;51.23
54144;BME280;40050;47.324;18.792;2023-03-23T07:51:15;1002.87;;;15.05;51.52
54144;BME280;40050;47.324;18.792;2023-03-23T07:53:16;1002.87;;;15.18;50.04
54144;BME280;40050;47.324;18.792;2023-03-23T07:55:17;1002.83;;;15.23;49.76
54144;BME280;40050;47.324;18.792;2023-03-23T07:57:18;1002.83;;;15.34;50.44
54144;BME280;40050;47.324;18.792;2023-03-23T07:59:19;1002.87;;;15.50;49.33
54144;BME280;40050;47.324;18.792;2023-03-23T08:01:20;1002.84;;;15.56;48.67
54144;BME280;40050;47.324;18.792;2023-03-23T08:03:21;1002.90;;;15.63;48.94
54144;BME280;40050;47.324;18.792;2023-03-23T08:05:23;1002.74;;;15.66;48.92
54144;BME280;40050;47.324;18.792;2023-03-23T08:07:24;1002.85;;;15.82;48.67
54144;BME280;40050;47.324;18.792;2023-03-23T08:09:25;1002.82;;;15.95;48.45
54144;BME280;40050;47.324;18.792;2023-03-23T08:11:26;1002.87;;;16.09;48.13
54144;BME280;40050;47.324;18.792;2023-03-23T08:13:27;1002.91;;;16.21;47.80
54144;BME280;40050;47.324;18.792;2023-03-23T08:15:28;1002.89;;;16.26;48.19
54144;BME280;40050;47.324;18.792;2023-03-23T08:17:29;1002.83;;;16.43;47.94
54144;BME280;40050;47.324;18.792;2023-03-23T08:19:30;1002.89;;;16.59;47.69
54144;BME280;40050;47.324;18.792;2023-03-23T08:21:31;1002.95;;;16.72;47.27
54144;BME280;40050;47.324;18.792;2023-03-23T08:23:32;1002.69;;;16.65;47.68
54144;BME280;40050;47.324;18.792;2023-03-23T08:25:33;1002.95;;;17.06;46.88
54144;BME280;40050;47.324;18.792;2023-03-23T08:27:34;1002.92;;;17.16;47.04
54144;BME280;40050;47.324;18.792;2023-03-23T08:29:35;1002.94;;;17.36;46.58
54144;BME280;40050;47.324;18.792;2023-03-23T08:31:37;1002.99;;;17.40;46.14
54144;BME280;40050;47.324;18.792;2023-03-23T08:33:39;1002.97;;;17.52;46.43
54144;BME280;40050;47.324;18.792;2023-03-23T08:35:40;1002.95;;;17.70;46.02
54144;BME280;40050;47.324;18.792;2023-03-23T08:37:41;1002.96;;;17.71;45.31
54144;BME280;40050;47.324;18.792;2023-03-23T08:39:42;1002.96;;;17.79;45.24
54144;BME280;40050;47.324;18.792;2023-03-23T08:41:43;1002.95;;;17.91;45.44
54144;BME280;40050;47.324;18.792;2023-03-23T08:43:44;1002.93;;;18.19;45.23
54144;BME280;40050;47.324;18.792;2023-03-23T08:45:45;1002.92;;;18.42;44.91
54144;BME280;40050;47.324;18.792;2023-03-23T08:47:46;1002.88;;;18.63;44.83
54144;BME280;40050;47.324;18.792;2023-03-23T08:49:47;1002.88;;;18.86;44.08
54144;BME280;40050;47.324;18.792;2023-03-23T08:51:48;1002.94;;;18.94;43.08
54144;BME280;40050;47.324;18.792;2023-03-23T08:53:49;1002.87;;;19.13;43.53
54144;BME280;40050;47.324;18.792;2023-03-23T08:55:50;1002.80;;;18.89;41.73
54144;BME280;40050;47.324;18.792;2023-03-23T08:57:51;1002.82;;;18.87;42.53
54144;BME280;40050;47.324;18.792;2023-03-23T08:59:52;1002.85;;;19.20;42.58
54144;BME280;40050;47.324;18.792;2023-03-23T09:01:54;1002.81;;;19.49;42.35
54144;BME280;40050;47.324;18.792;2023-03-23T09:03:55;1002.85;;;19.37;41.33
54144;BME280;40050;47.324;18.792;2023-03-23T09:05:59;1002.85;;;19.50;41.69
54144;BME280;40050;47.324;18.792;2023-03-23T09:08:00;1002.69;;;19.49;41.28
54144;BME280;40050;47.324;18.792;2023-03-23T09:10:01;1002.76;;;19.67;41.52
54144;BME280;40050;47.324;18.792;2023-03-23T09:12:02;1002.67;;;19.95;41.77
54144;BME280;40050;47.324;18.792;2023-03-23T09:14:03;1002.69;;;20.16;41.11
54144;BME280;40050;47.324;18.792;2023-03-23T09:16:05;1002.63;;;20.25;40.40
54144;BME280;40050;47.324;18.792;2023-03-23T09:18:06;1002.73;;;20.27;39.78
54144;BME280;40050;47.324;18.792;2023-03-23T09:20:08;1002.59;;;20.09;39.94
54144;BME280;40050;47.324;18.792;2023-03-23T09:22:09;1002.67;;;20.28;39.72
54144;BME280;40050;47.324;18.792;2023-03-23T09:24:10;1002.66;;;20.15;40.89
54144;BME280;40050;47.324;18.792;2023-03-23T09:26:11;1002.66;;;20.39;39.60
54144;BME280;40050;47.324;18.792;2023-03-23T09:28:12;1002.65;;;20.60;40.30
54144;BME280;40050;47.324;18.792;2023-03-23T09:30:13;1002.58;;;20.56;38.68
54144;BME280;40050;47.324;18.792;2023-03-23T09:32:14;1002.64;;;20.59;39.19
54144;BME280;40050;47.324;18.792;2023-03-23T09:34:15;1002.61;;;20.81;39.24
54144;BME280;40050;47.324;18.792;2023-03-23T09:36:16;1002.64;;;20.84;38.87
54144;BME280;40050;47.324;18.792;2023-03-23T09:38:17;1002.61;;;20.94;38.92
54144;BME280;40050;47.324;18.792;2023-03-23T09:40:22;1002.65;;;21.28;38.87
54144;BME280;40050;47.324;18.792;2023-03-23T09:47:32;1002.40;;;21.74;37.89
54144;BME280;40050;47.324;18.792;2023-03-23T09:49:48;1002.36;;;21.80;36.53
54144;BME280;40050;47.324;18.792;2023-03-23T09:51:52;1002.31;;;22.04;37.10
54144;BME280;40050;47.324;18.792;2023-03-23T09:53:54;1002.30;;;21.95;35.26
54144;BME280;40050;47.324;18.792;2023-03-23T09:55:57;1002.24;;;21.98;34.44
54144;BME280;40050;47.324;18.792;2023-03-23T10:00:24;1002.20;;;21.92;33.80
54144;BME280;40050;47.324;18.792;2023-03-23T10:02:46;1002.18;;;21.80;33.38
54144;BME280;40050;47.324;18.792;2023-03-23T10:04:46;1002.18;;;21.62;33.48
54144;BME280;40050;47.324;18.792;2023-03-23T10:06:47;1002.16;;;21.81;34.14
54144;BME280;40050;47.324;18.792;2023-03-23T10:08:55;1002.24;;;21.69;33.70
54144;BME280;40050;47.324;18.792;2023-03-23T10:11:04;1002.26;;;21.77;32.90
54144;BME280;40050;47.324;18.792;2023-03-23T10:13:09;1002.19;;;21.61;33.67
54144;BME280;40050;47.324;18.792;2023-03-23T10:15:14;1002.15;;;21.58;33.49
54144;BME280;40050;47.324;18.792;2023-03-23T10:17:24;1002.20;;;21.68;34.12
54144;BME280;40050;47.324;18.792;2023-03-23T10:19:39;1002.10;;;21.51;33.93
54144;BME280;40050;47.324;18.792;2023-03-23T10:21:44;1001.97;;;21.54;33.86
54144;BME280;40050;47.324;18.792;2023-03-23T10:24:03;1002.07;;;21.71;33.83
54144;BME280;40050;47.324;18.792;2023-03-23T10:30:51;1001.91;;;22.00;33.43
54144;BME280;40050;47.324;18.792;2023-03-23T10:33:05;1001.85;;;22.08;33.11
54144;BME280;40050;47.324;18.792;2023-03-23T10:35:13;1001.80;;;22.16;33.23
54144;BME280;40050;47.324;18.792;2023-03-23T10:39:32;1001.83;;;22.04;32.59
54144;BME280;40050;47.324;18.792;2023-03-23T10:41:33;1001.81;;;22.33;32.28
54144;BME280;40050;47.324;18.792;2023-03-23T10:43:35;1001.71;;;22.33;32.67
54144;BME280;40050;47.324;18.792;2023-03-23T10:45:35;1001.67;;;22.60;32.17
54144;BME280;40050;47.324;18.792;2023-03-23T10:47:37;1001.62;;;22.87;31.99
54144;BME280;40050;47.324;18.792;2023-03-23T10:49:42;1001.67;;;22.71;32.07
54144;BME280;40050;47.324;18.792;2023-03-23T10:51:53;1001.61;;;22.51;32.07
54144;BME280;40050;47.324;18.792;2023-03-23T10:53:57;1001.67;;;22.20;32.38
54144;BME280;40050;47.324;18.792;2023-03-23T10:55:59;1001.66;;;22.40;32.06
54144;BME280;40050;47.324;18.792;2023-03-23T10:58:10;1001.72;;;22.13;31.86
54144;BME280;40050;47.324;18.792;2023-03-23T11:00:19;1001.71;;;22.29;31.37
54144;BME280;40050;47.324;18.792;2023-03-23T11:02:20;1001.60;;;22.32;32.00
54144;BME280;40050;47.324;18.792;2023-03-23T11:04:24;1001.72;;;22.40;31.83
54144;BME280;40050;47.324;18.792;2023-03-23T11:06:27;1001.69;;;22.33;32.05
54144;BME280;40050;47.324;18.792;2023-03-23T11:08:29;1001.76;;;22.26;33.03
54144;BME280;40050;47.324;18.792;2023-03-23T11:10:35;1001.70;;;22.07;32.83
54144;BME280;40050;47.324;18.792;2023-03-23T11:12:37;1001.73;;;22.34;32.95
54144;BME280;40050;47.324;18.792;2023-03-23T11:14:38;1001.67;;;22.45;33.15
54144;BME280;40050;47.324;18.792;2023-03-23T11:16:42;1001.70;;;22.52;33.49
54144;BME280;40050;47.324;18.792;2023-03-23T11:18:43;1001.46;;;22.51;32.47
54144;BME280;40050;47.324;18.792;2023-03-23T11:20:45;1001.62;;;22.42;32.67
54144;BME280;40050;47.324;18.792;2023-03-23T11:22:46;1001.60;;;22.45;31.61
54144;BME280;40050;47.324;18.792;2023-03-23T11:24:52;1001.60;;;22.56;31.93
54144;BME280;40050;47.324;18.792;2023-03-23T11:26:53;1001.50;;;22.41;32.42
54144;BME280;40050;47.324;18.792;2023-03-23T11:29:11;1001.46;;;22.45;32.17
54144;BME280;40050;47.324;18.792;2023-03-23T11:31:13;1001.46;;;22.51;32.15
54144;BME280;40050;47.324;18.792;2023-03-23T11:33:14;1001.49;;;22.51;31.80
54144;BME280;40050;47.324;18.792;2023-03-23T11:35:22;1001.40;;;22.52;32.11
54144;BME280;40050;47.324;18.792;2023-03-23T11:37:34;1001.43;;;22.57;32.72
54144;BME280;40050;47.324;18.792;2023-03-23T11:42:01;1001.39;;;22.04;32.38